createdAt,value
2019-04-20T00:08:55.730Z,12.82
2019-04-20T00:18:58.357Z,13.60
2019-04-20T00:29:21.625Z,13.70
2019-04-20T00:39:12.841Z,14.10
2019-04-20T00:49:32.283Z,13.53
2019-04-20T00:59:35.358Z,13.03
2019-04-20T01:09:49.870Z,12.35
2019-04-20T01:19:55.513Z,13.43
2019-04-20T01:30:11.720Z,13.32
2019-04-20T01:40:10.913Z,11.73
2019-04-20T01:50:22.136Z,13.08
2019-04-20T02:00:44.859Z,13.05
2019-04-20T02:10:53.660Z,12.63
2019-04-20T02:21:15.095Z,12.65
2019-04-20T02:31:47.517Z,12.30
2019-04-20T02:41:44.864Z,12.05
2019-04-20T02:51:54.050Z,11.55
2019-04-20T03:01:45.438Z,12.00
2019-04-20T03:11:58.280Z,11.65
2019-04-20T03:22:04.106Z,11.57
2019-04-20T03:32:44.923Z,11.45
2019-04-20T03:42:01.039Z,11.60
2019-04-20T03:52:58.054Z,10.55
2019-04-20T04:03:12.481Z,10.32
2019-04-20T04:13:09.969Z,10.98
2019-04-20T04:23:35.589Z,11.10
2019-04-20T04:43:49.949Z,10.68
2019-04-20T04:53:47.939Z,10.90
2019-04-20T05:04:10.613Z,11.30
2019-04-20T05:13:59.502Z,10.68
2019-04-20T05:24:22.604Z,10.70
2019-04-20T05:34:43.648Z,11.45
2019-04-20T05:44:47.358Z,14.93
2019-04-20T06:04:59.672Z,12.00
2019-04-20T06:15:14.475Z,11.40
2019-04-20T06:25:47.365Z,12.10
2019-04-20T06:36:00.974Z,10.75
2019-04-20T06:46:01.440Z,9.48
2019-04-20T06:56:09.941Z,9.10
2019-04-20T07:06:29.333Z,10.00
2019-04-20T07:16:28.290Z,10.13
2019-04-20T07:26:37.336Z,9.40
2019-04-20T07:36:37.741Z,9.13
2019-04-20T07:56:53.797Z,9.70
2019-04-20T08:06:47.030Z,8.63
2019-04-20T08:17:21.332Z,9.25
2019-04-20T08:27:05.782Z,8.40
2019-04-20T08:37:29.594Z,9.65
2019-04-20T08:57:22.402Z,9.18
2019-04-20T09:07:30.596Z,9.03
2019-04-20T09:17:46.600Z,8.75
2019-04-20T09:28:20.081Z,10.08
2019-04-20T09:38:30.623Z,10.35
2019-04-20T09:48:33.461Z,9.18
2019-04-20T09:58:53.389Z,11.15
2019-04-20T10:08:44.792Z,11.35
2019-04-20T10:18:48.818Z,11.33
2019-04-20T10:28:51.874Z,11.08
2019-04-20T10:38:58.240Z,11.68
2019-04-20T10:49:04.777Z,11.88
2019-04-20T10:59:11.874Z,11.05
2019-04-20T11:09:18.467Z,10.55
2019-04-20T11:19:25.194Z,11.05
2019-04-20T11:29:31.912Z,10.95
2019-04-20T11:39:39.005Z,11.83
2019-04-20T11:49:45.734Z,11.10
2019-04-20T11:59:52.908Z,11.80
2019-04-20T12:20:05.956Z,11.45
2019-04-20T12:30:12.279Z,11.43
2019-04-20T12:40:19.798Z,12.20
2019-04-20T12:50:25.667Z,11.43
2019-04-20T13:00:43.744Z,10.27
2019-04-20T13:11:08.681Z,9.35
2019-04-20T13:21:14.399Z,8.60
2019-04-20T13:31:20.004Z,10.50
2019-04-20T13:41:25.574Z,8.90
2019-04-20T13:51:31.024Z,7.87
2019-04-20T14:01:42.068Z,8.30
2019-04-20T14:11:47.709Z,7.50
2019-04-20T14:21:54.150Z,7.00
2019-04-20T14:32:01.777Z,7.90
2019-04-20T14:42:06.855Z,7.55
2019-04-20T14:52:13.339Z,6.80
2019-04-20T15:02:21.626Z,7.20
2019-04-20T15:12:38.762Z,7.28
2019-04-20T15:22:43.704Z,6.83
2019-04-20T15:32:49.326Z,10.93
2019-04-20T15:43:01.004Z,6.67
2019-04-20T15:53:02.624Z,7.97
2019-04-20T16:03:17.089Z,7.80
2019-04-20T16:13:29.811Z,7.10
2019-04-20T16:23:32.700Z,18.10
2019-04-20T16:33:38.827Z,8.98
2019-04-20T16:43:46.298Z,8.05
2019-04-20T16:53:51.919Z,8.08
2019-04-20T17:04:06.182Z,7.03
2019-04-20T17:14:04.758Z,10.53
2019-04-20T17:24:11.168Z,7.08
2019-04-20T17:34:36.475Z,9.28
2019-04-20T17:44:41.372Z,7.30
2019-04-20T17:54:39.769Z,6.28
2019-04-20T18:05:28.368Z,5.95
2019-04-20T18:15:31.437Z,7.45
2019-04-20T18:25:53.369Z,8.25
2019-04-20T18:35:36.167Z,7.47
2019-04-20T18:46:12.417Z,7.20
2019-04-20T18:56:06.478Z,7.43
2019-04-20T19:06:14.100Z,8.50
2019-04-20T19:16:50.575Z,7.95
2019-04-20T19:26:48.135Z,8.55
2019-04-20T19:37:04.123Z,9.43
2019-04-20T19:47:15.607Z,12.75
2019-04-20T19:57:24.095Z,12.82
2019-04-20T20:07:21.990Z,13.30
2019-04-20T20:17:41.215Z,16.30
2019-04-20T20:27:32.578Z,13.25
2019-04-20T20:37:44.789Z,13.72
2019-04-20T20:48:00.473Z,12.58
2019-04-20T20:57:57.438Z,12.58
2019-04-20T21:07:55.372Z,15.90
2019-04-20T21:18:20.591Z,10.05
2019-04-20T21:28:08.971Z,9.53
2019-04-20T21:38:16.587Z,10.25
2019-04-20T21:48:40.737Z,9.68
2019-04-20T21:58:35.461Z,10.35
2019-04-20T22:08:40.464Z,11.08
2019-04-20T22:18:54.426Z,10.72
2019-04-20T22:28:52.043Z,11.45
2019-04-20T22:39:16.708Z,11.25
2019-04-20T22:49:43.081Z,11.45
2019-04-20T22:59:41.767Z,11.33
2019-04-20T23:09:44.299Z,11.05
2019-04-20T23:19:49.505Z,12.30
2019-04-20T23:29:53.134Z,12.37
2019-04-20T23:39:58.621Z,11.55
2019-04-20T23:50:20.937Z,11.85
